createdAt,value
2023-04-18T00:03:10.536Z,17.10
2023-04-18T00:07:27.847Z,18.13
2023-04-18T00:11:45.400Z,19.83
2023-04-18T00:16:02.592Z,19.13
2023-04-18T00:20:19.809Z,21.10
2023-04-18T00:24:36.953Z,22.52
2023-04-18T00:28:54.271Z,22.52
2023-04-18T00:33:11.490Z,23.58
2023-04-18T00:37:29.976Z,23.48
2023-04-18T00:41:47.165Z,25.38
2023-04-18T00:46:04.528Z,26.67
2023-04-18T00:50:23.080Z,26.48
2023-04-18T00:54:41.340Z,27.48
2023-04-18T00:58:59.258Z,26.73
2023-04-18T01:03:18.371Z,25.40
2023-04-18T01:07:38.007Z,26.38
2023-04-18T01:11:55.210Z,24.50
2023-04-18T01:16:12.411Z,23.05
2023-04-18T01:20:31.229Z,21.77
2023-04-18T01:24:48.307Z,24.90
2023-04-18T01:29:05.718Z,24.10
2023-04-18T01:33:22.937Z,23.80
2023-04-18T01:37:40.045Z,24.73
2023-04-18T01:41:57.233Z,24.10
2023-04-18T01:46:14.443Z,25.27
2023-04-18T01:50:31.620Z,24.52
2023-04-18T01:54:48.753Z,23.10
2023-04-18T01:59:05.880Z,23.10
2023-04-18T02:03:23.580Z,24.27
2023-04-18T02:07:42.735Z,25.53
2023-04-18T02:12:02.608Z,23.88
2023-04-18T02:16:19.910Z,26.77
2023-04-18T02:20:37.257Z,23.15
2023-04-18T02:24:54.412Z,21.52
2023-04-18T02:29:11.841Z,22.35
2023-04-18T02:33:29.213Z,22.63
2023-04-18T02:37:46.400Z,20.58
2023-04-18T02:42:03.637Z,24.90
2023-04-18T02:46:21.246Z,22.63
2023-04-18T02:50:38.400Z,24.38
2023-04-18T02:54:55.834Z,22.30
2023-04-18T02:59:12.959Z,21.42
2023-04-18T03:03:30.151Z,24.02
2023-04-18T03:07:47.296Z,22.35
2023-04-18T03:12:04.647Z,22.50
2023-04-18T03:16:22.069Z,20.98
2023-04-18T03:20:39.974Z,24.27
2023-04-18T03:24:57.100Z,22.80
2023-04-18T03:29:14.228Z,21.58
2023-04-18T03:33:31.361Z,24.48
2023-04-18T03:37:48.458Z,25.85
2023-04-18T03:42:05.702Z,22.77
2023-04-18T03:46:24.612Z,23.67
2023-04-18T03:50:41.841Z,26.42
2023-04-18T03:54:59.054Z,22.95
2023-04-18T03:59:16.330Z,24.17
2023-04-18T04:03:33.572Z,25.95
2023-04-18T04:07:51.045Z,28.40
2023-04-18T04:12:08.273Z,31.67
2023-04-18T04:16:25.676Z,33.17
2023-04-18T04:20:45.560Z,37.78
2023-04-18T04:25:03.749Z,35.60
2023-04-18T04:29:24.013Z,43.80
2023-04-18T04:33:41.208Z,51.25
2023-04-18T04:37:58.904Z,45.00
2023-04-18T04:42:16.064Z,44.50
2023-04-18T04:46:33.938Z,48.97
2023-04-18T04:50:56.649Z,48.83
2023-04-18T04:55:13.761Z,49.08
2023-04-18T04:59:31.466Z,53.38
2023-04-18T05:03:49.902Z,40.50
2023-04-18T05:08:07.199Z,56.40
2023-04-18T05:12:24.328Z,51.53
2023-04-18T05:16:42.929Z,48.30
2023-04-18T05:25:17.434Z,48.92
2023-04-18T05:29:34.554Z,47.90
2023-04-18T05:33:51.707Z,41.00
2023-04-18T05:38:08.942Z,45.38
2023-04-18T05:42:26.233Z,42.90
2023-04-18T05:46:43.481Z,38.33
2023-04-18T05:51:00.923Z,41.28
2023-04-18T05:55:18.251Z,42.75
2023-04-18T05:59:35.489Z,43.17
2023-04-18T06:03:52.891Z,42.85
2023-04-18T06:08:10.290Z,43.65
2023-04-18T06:12:28.153Z,44.17
2023-04-18T06:16:45.332Z,49.00
2023-04-18T06:21:02.446Z,47.25
2023-04-18T06:25:19.784Z,46.17
2023-04-18T06:29:38.066Z,44.88
2023-04-18T06:33:55.425Z,46.80
2023-04-18T06:38:12.622Z,45.45
2023-04-18T06:42:29.791Z,46.03
2023-04-18T06:46:46.963Z,42.83
2023-04-18T06:51:04.240Z,44.50
2023-04-18T06:55:21.515Z,47.08
2023-04-18T06:59:38.627Z,49.65
2023-04-18T07:03:55.990Z,53.33
2023-04-18T07:08:13.192Z,58.38
2023-04-18T07:12:30.386Z,57.40
2023-04-18T07:16:47.609Z,56.10
2023-04-18T07:21:07.519Z,54.97
2023-04-18T07:25:25.129Z,49.47
2023-04-18T07:29:42.499Z,50.40
2023-04-18T07:33:59.706Z,45.33
2023-04-18T07:38:17.289Z,45.63
2023-04-18T07:42:34.462Z,42.67
2023-04-18T07:46:52.233Z,38.97
2023-04-18T07:51:09.430Z,40.20
2023-04-18T07:55:26.981Z,40.83
2023-04-18T07:59:44.110Z,41.47
2023-04-18T08:04:01.966Z,38.95
2023-04-18T08:08:19.749Z,39.15
2023-04-18T08:12:37.180Z,36.25
2023-04-18T08:16:54.413Z,34.97
2023-04-18T08:21:11.691Z,31.67
2023-04-18T08:25:31.546Z,33.92
2023-04-18T08:29:48.736Z,36.22
2023-04-18T08:34:05.976Z,33.10
2023-04-18T08:38:23.176Z,30.52
2023-04-18T08:42:43.684Z,31.02
2023-04-18T08:47:01.578Z,31.42
2023-04-18T08:51:18.808Z,35.13
2023-04-18T08:55:36.284Z,36.63
2023-04-18T08:59:54.036Z,38.67
2023-04-18T09:04:13.889Z,42.83
2023-04-18T09:08:31.058Z,40.97
2023-04-18T09:12:52.141Z,39.10
2023-04-18T09:17:13.208Z,41.63
2023-04-18T09:21:32.732Z,39.10
2023-04-18T09:25:52.059Z,39.50
2023-04-18T09:30:09.793Z,39.42
2023-04-18T09:34:28.128Z,39.83
2023-04-18T09:38:45.843Z,40.90
2023-04-18T09:43:18.442Z,37.70
2023-04-18T09:47:37.234Z,33.65
2023-04-18T09:56:27.541Z,26.65
2023-04-18T10:00:46.966Z,33.35
2023-04-18T10:05:07.885Z,36.05
2023-04-18T10:09:25.563Z,33.65
2023-04-18T10:13:46.365Z,33.00
2023-04-18T10:18:10.864Z,35.88
2023-04-18T10:22:28.328Z,33.40
2023-04-18T10:26:47.068Z,31.90
2023-04-18T10:31:04.934Z,34.28
2023-04-18T10:35:22.228Z,35.23
2023-04-18T10:40:05.954Z,36.42
2023-04-18T10:44:23.944Z,35.28
2023-04-18T10:48:41.332Z,36.00
2023-04-18T10:52:58.511Z,36.58
2023-04-18T10:57:15.652Z,38.50
2023-04-18T11:01:37.569Z,37.35
2023-04-18T11:06:02.506Z,37.67
2023-04-18T11:10:21.181Z,36.33
2023-04-18T11:14:45.738Z,39.08
2023-04-18T11:19:23.294Z,39.25
2023-04-18T11:23:41.415Z,39.08
2023-04-18T11:28:01.102Z,38.78
2023-04-18T11:32:18.332Z,38.58
2023-04-18T11:36:37.969Z,37.22
2023-04-18T11:40:55.245Z,40.00
2023-04-18T11:45:13.798Z,39.13
2023-04-18T11:49:33.729Z,38.10
2023-04-18T11:53:51.133Z,36.90
2023-04-18T11:58:08.358Z,40.50
2023-04-18T12:02:38.893Z,43.05
2023-04-18T12:06:56.800Z,40.88
2023-04-18T12:11:21.144Z,40.25
2023-04-18T12:15:40.729Z,40.38
2023-04-18T12:20:02.190Z,41.22
2023-04-18T12:24:19.595Z,40.08
2023-04-18T12:28:36.900Z,38.95
2023-04-18T12:32:57.130Z,37.70
2023-04-18T12:37:14.302Z,37.63
2023-04-18T12:41:31.586Z,35.42
2023-04-18T12:45:49.894Z,35.95
2023-04-18T12:50:11.946Z,34.95
2023-04-18T12:54:29.246Z,34.35
2023-04-18T12:58:46.473Z,36.13
2023-04-18T13:03:03.910Z,35.53
2023-04-18T13:07:21.669Z,32.42
2023-04-18T13:11:38.829Z,31.67
2023-04-18T13:15:56.326Z,30.98
2023-04-18T13:20:13.625Z,34.97
2023-04-18T13:24:30.890Z,31.08
2023-04-18T13:28:48.118Z,32.25
2023-04-18T13:33:05.324Z,32.72
2023-04-18T13:37:23.608Z,33.45
2023-04-18T13:41:40.760Z,35.83
2023-04-18T13:45:57.951Z,37.25
2023-04-18T13:50:15.270Z,37.00
2023-04-18T13:54:32.909Z,38.95
2023-04-18T13:58:50.949Z,39.42
2023-04-18T14:03:08.234Z,39.33
2023-04-18T14:07:25.438Z,37.92
2023-04-18T14:11:42.874Z,39.70
2023-04-18T14:16:01.435Z,37.25
2023-04-18T14:20:21.712Z,39.33
2023-04-18T14:24:38.860Z,45.90
2023-04-18T14:28:56.505Z,42.60
2023-04-18T14:33:13.717Z,39.85
2023-04-18T14:37:30.936Z,43.03
2023-04-18T14:41:48.252Z,37.65
2023-04-18T14:46:12.282Z,36.20
2023-04-18T14:50:29.797Z,37.03
2023-04-18T14:54:46.928Z,36.53
2023-04-18T14:59:04.137Z,33.78
2023-04-18T15:03:23.527Z,33.28
2023-04-18T15:07:42.834Z,35.08
2023-04-18T15:12:00.078Z,33.22
2023-04-18T15:16:18.500Z,34.25
2023-04-18T15:20:37.140Z,32.05
2023-04-18T15:29:12.167Z,31.02
2023-04-18T15:33:29.431Z,31.37
2023-04-18T15:37:46.672Z,33.97
2023-04-18T15:42:03.856Z,31.65
2023-04-18T15:46:21.065Z,34.03
2023-04-18T15:50:38.248Z,34.75
2023-04-18T15:54:57.299Z,31.77
2023-04-18T15:59:14.650Z,30.88
2023-04-18T16:03:31.990Z,31.58
2023-04-18T16:07:49.372Z,30.45
2023-04-18T16:12:08.071Z,28.55
2023-04-18T16:20:43.045Z,30.33
2023-04-18T16:25:00.328Z,30.55
2023-04-18T16:29:18.002Z,31.92
2023-04-18T16:33:35.185Z,31.58
2023-04-18T16:37:52.565Z,29.05
2023-04-18T16:42:10.139Z,31.65
2023-04-18T16:46:31.303Z,29.00
2023-04-18T16:50:50.140Z,29.70
2023-04-18T16:55:07.628Z,30.45
2023-04-18T16:59:24.850Z,31.98
2023-04-18T17:03:42.741Z,31.63
2023-04-18T17:08:00.628Z,31.67
2023-04-18T17:12:17.958Z,31.07
2023-04-18T17:16:38.615Z,31.83
2023-04-18T17:20:55.907Z,30.25
2023-04-18T17:25:13.088Z,34.13
2023-04-18T17:29:30.250Z,34.00
2023-04-18T17:33:47.454Z,32.78
2023-04-18T17:38:04.609Z,32.40
2023-04-18T17:42:21.850Z,32.28
2023-04-18T17:46:39.149Z,33.95
2023-04-18T17:50:56.279Z,36.70
2023-04-18T17:55:13.538Z,34.70
2023-04-18T17:59:30.660Z,37.67
2023-04-18T18:03:48.754Z,33.80
2023-04-18T18:08:06.223Z,36.88
2023-04-18T18:12:23.777Z,37.05
2023-04-18T18:16:41.096Z,36.88
2023-04-18T18:20:58.653Z,37.03
2023-04-18T18:25:15.875Z,39.90
2023-04-18T18:29:33.091Z,37.00
2023-04-18T18:33:51.014Z,42.45
2023-04-18T18:38:08.151Z,43.10
2023-04-18T18:42:25.509Z,41.65
2023-04-18T18:46:43.391Z,38.17
2023-04-18T18:51:01.127Z,43.50
2023-04-18T18:55:18.921Z,38.28
2023-04-18T18:59:36.065Z,43.13
2023-04-18T19:03:54.358Z,44.03
2023-04-18T19:08:11.824Z,38.17
2023-04-18T19:12:29.234Z,43.80
2023-04-18T19:16:46.325Z,41.22
2023-04-18T19:21:04.466Z,43.90
2023-04-18T19:25:21.906Z,47.23
2023-04-18T19:29:39.529Z,44.97
2023-04-18T19:33:56.933Z,45.10
2023-04-18T19:38:14.071Z,45.45
2023-04-18T19:42:31.222Z,40.65
2023-04-18T19:46:48.353Z,43.78
2023-04-18T19:51:05.779Z,43.45
2023-04-18T19:55:23.181Z,50.97
2023-04-18T19:59:40.410Z,44.65
2023-04-18T20:04:00.169Z,52.85
2023-04-18T20:08:17.845Z,46.20
2023-04-18T20:12:35.519Z,46.70
2023-04-18T20:16:52.794Z,53.50
2023-04-18T20:21:11.041Z,51.85
2023-04-18T20:25:28.280Z,49.35
2023-04-18T20:29:45.396Z,50.85
2023-04-18T20:34:02.555Z,47.30
2023-04-18T20:38:25.916Z,49.97
2023-04-18T20:42:43.362Z,48.40
2023-04-18T20:47:00.986Z,48.78
2023-04-18T20:51:18.414Z,53.10
2023-04-18T20:55:35.651Z,51.45
2023-04-18T20:59:52.804Z,49.80
2023-04-18T21:04:10.145Z,54.15
2023-04-18T21:08:27.420Z,53.50
2023-04-18T21:12:46.220Z,52.28
2023-04-18T21:17:03.417Z,51.90
2023-04-18T21:21:20.576Z,44.17
2023-04-18T21:25:37.709Z,43.78
2023-04-18T21:29:55.151Z,44.25
2023-04-18T21:34:12.302Z,48.20
2023-04-18T21:38:29.449Z,48.78
2023-04-18T21:42:48.672Z,48.90
2023-04-18T21:47:07.006Z,45.45
2023-04-18T21:51:24.166Z,41.90
2023-04-18T21:55:41.351Z,46.33
2023-04-18T21:59:58.489Z,49.33
2023-04-18T22:04:16.142Z,43.78
2023-04-18T22:08:33.871Z,46.80
2023-04-18T22:12:53.959Z,51.83
2023-04-18T22:17:11.190Z,45.50
2023-04-18T22:21:28.345Z,44.72
2023-04-18T22:25:45.635Z,53.30
2023-04-18T22:30:02.992Z,52.03
2023-04-18T22:34:20.103Z,63.13
2023-04-18T22:38:37.233Z,45.88
2023-04-18T22:42:54.438Z,51.70
2023-04-18T22:47:11.598Z,48.22
2023-04-18T22:51:28.780Z,48.28
2023-04-18T22:55:46.447Z,49.22
2023-04-18T23:00:05.195Z,51.90
2023-04-18T23:08:39.755Z,50.70
2023-04-18T23:12:56.995Z,52.05
2023-04-18T23:17:14.094Z,53.80
2023-04-18T23:21:32.166Z,50.25
2023-04-18T23:25:49.299Z,53.67
2023-04-18T23:30:07.237Z,52.10
2023-04-18T23:34:24.400Z,49.10
2023-04-18T23:38:41.916Z,51.28
2023-04-18T23:42:59.134Z,49.22
2023-04-18T23:47:16.325Z,44.50
2023-04-18T23:51:33.536Z,51.65
2023-04-18T23:55:51.224Z,45.50
